Time;durP1;ratioP1;P1;durP2;ratioP2;P2;SDS_P1;SDS_P2;PMS_P1;PMS_P2;Temp;Humidity;BMP_temperature;BMP_pressure;BME280_temperature;BME280_humidity;BME280_pressure;Samples;Min_cycle;Max_cycle;Signal;HPM_P1;HPM_P2
2022/04/12 00:02:22;;;;;;;10.50;6.68;;;7.00;99.90;;;;;;5075805;28;20040;-73
2022/04/12 00:04:48;;;;;;;12.38;7.68;;;6.90;99.90;;;;;;5075163;28;20138;-74
2022/04/12 00:07:15;;;;;;;10.57;7.00;;;6.70;99.90;;;;;;5091964;28;20055;-74
2022/04/12 00:09:41;;;;;;;11.85;7.60;;;6.70;99.90;;;;;;5075567;28;20052;-74
2022/04/12 00:12:08;;;;;;;11.07;7.55;;;6.70;99.90;;;;;;5091945;28;20047;-73
2022/04/12 00:14:34;;;;;;;11.40;7.40;;;6.60;99.90;;;;;;5075472;28;20527;-74
2022/04/12 00:19:44;;;;;;;11.70;7.28;;;6.60;99.90;;;;;;5077445;28;20055;-74
2022/04/12 00:22:09;;;;;;;10.73;6.70;;;6.80;99.90;;;;;;5074802;28;20036;-74
2022/04/12 00:24:35;;;;;;;11.05;7.80;;;6.60;99.90;;;;;;5075013;28;20044;-74
2022/04/12 00:27:01;;;;;;;11.30;7.20;;;6.80;99.90;;;;;;5091597;28;20048;-74
2022/04/12 00:29:26;;;;;;;15.90;8.40;;;6.60;99.90;;;;;;5074714;28;20044;-74
2022/04/12 00:31:52;;;;;;;11.93;7.80;;;6.50;99.90;;;;;;5091518;28;20044;-74
2022/04/12 00:34:18;;;;;;;10.63;7.70;;;6.50;99.90;;;;;;5091433;28;20044;-74
2022/04/12 00:36:43;;;;;;;10.70;7.57;;;6.50;99.90;;;;;;5057499;28;20411;-74
2022/04/12 00:39:09;;;;;;;12.93;8.27;;;6.50;99.90;;;;;;5074216;28;20044;-74
2022/04/12 00:41:35;;;;;;;12.48;8.13;;;6.50;99.90;;;;;;5074517;28;20499;-74
2022/04/12 00:44:02;;;;;;;13.02;7.90;;;6.70;99.90;;;;;;5074482;28;20123;-74
2022/04/12 00:46:27;;;;;;;12.02;8.73;;;6.40;99.90;;;;;;5091270;28;20070;-74
2022/04/12 00:48:53;;;;;;;12.95;9.00;;;6.40;99.90;;;;;;5091196;28;20043;-74
2022/04/12 00:51:20;;;;;;;12.90;9.07;;;6.40;99.90;;;;;;5091155;28;20040;-74
2022/04/12 00:53:46;;;;;;;13.15;8.48;;;7.10;99.90;;;;;;5057858;28;20108;-74
2022/04/12 00:56:12;;;;;;;12.93;8.75;;;6.40;99.90;;;;;;5074132;28;20043;-74
2022/04/12 00:58:38;;;;;;;13.43;9.43;;;6.70;99.90;;;;;;5091101;28;20131;-74
2022/04/12 01:01:04;;;;;;;13.05;8.73;;;6.30;99.90;;;;;;5074167;28;20047;-74
2022/04/12 01:03:30;;;;;;;12.23;8.40;;;6.40;99.90;;;;;;5091249;28;20044;-73
2022/04/12 01:05:57;;;;;;;15.77;9.48;;;6.30;99.90;;;;;;5090973;28;20098;-74
2022/04/12 01:08:23;;;;;;;13.45;9.20;;;6.30;99.90;;;;;;5074067;28;20032;-74
2022/04/12 01:10:50;;;;;;;12.30;8.98;;;6.30;99.90;;;;;;5091130;28;20028;-74
2022/04/12 01:13:16;;;;;;;14.73;9.52;;;6.30;99.90;;;;;;5090990;28;20079;-74
2022/04/12 01:15:42;;;;;;;14.07;9.38;;;6.30;99.90;;;;;;5074262;28;20078;-74
2022/04/12 01:18:10;;;;;;;17.75;9.65;;;6.90;99.90;;;;;;5090544;28;20056;-74
2022/04/12 01:20:36;;;;;;;13.00;9.85;;;6.20;99.90;;;;;;5090745;28;20127;-74
2022/04/12 01:23:31;;;;;;;15.23;9.25;;;6.90;99.90;;;;;;5090996;28;20471;-73
2022/04/12 01:25:57;;;;;;;12.90;9.32;;;6.20;99.90;;;;;;5074305;28;20046;-74
2022/04/12 01:28:23;;;;;;;12.07;8.88;;;6.10;99.90;;;;;;5073932;28;20040;-73
2022/04/12 01:30:54;;;;;;;12.57;8.65;;;6.10;99.90;;;;;;5090728;28;20128;-74
2022/04/12 01:33:20;;;;;;;14.68;9.93;;;6.10;99.90;;;;;;5090788;28;20093;-74
2022/04/12 01:35:46;;;;;;;13.38;9.82;;;6.10;99.90;;;;;;5090684;28;20039;-74
2022/04/12 01:38:12;;;;;;;14.45;8.90;;;6.10;99.90;;;;;;5090994;28;20504;-74
2022/04/12 01:40:37;;;;;;;15.45;9.25;;;6.00;99.90;;;;;;5074021;28;20132;-74
2022/04/12 01:43:03;;;;;;;13.60;8.75;;;6.00;99.90;;;;;;5057835;28;20161;-74
2022/04/12 01:45:29;;;;;;;13.95;9.43;;;6.00;99.90;;;;;;5074356;28;20054;-73
2022/04/12 01:47:56;;;;;;;15.35;10.95;;;5.90;99.90;;;;;;5074562;28;20048;-74
2022/04/12 01:50:22;;;;;;;14.85;10.63;;;6.00;99.90;;;;;;5077696;28;20115;-74
2022/04/12 01:52:48;;;;;;;12.25;9.48;;;6.00;99.90;;;;;;5094965;28;20497;-73
2022/04/12 01:55:14;;;;;;;12.73;9.45;;;6.00;99.90;;;;;;5094856;28;20063;-73
2022/04/12 01:57:40;;;;;;;15.65;9.85;;;5.90;99.90;;;;;;5077649;28;20123;-74
2022/04/12 02:00:07;;;;;;;11.10;9.10;;;5.90;99.90;;;;;;5077806;28;20119;-73
2022/04/12 02:02:33;;;;;;;15.20;9.88;;;5.90;99.90;;;;;;5077640;28;20479;-74
2022/04/12 02:04:59;;;;;;;12.95;9.98;;;5.80;99.90;;;;;;5077584;28;20453;-73
2022/04/12 02:07:26;;;;;;;13.20;9.80;;;5.80;99.90;;;;;;5094693;28;20043;-73
2022/04/12 02:09:52;;;;;;;13.43;9.73;;;6.00;99.90;;;;;;5077762;28;20461;-73
2022/04/12 02:12:18;;;;;;;15.25;10.70;;;5.80;99.90;;;;;;5094558;28;20132;-73
2022/04/12 02:14:44;;;;;;;14.90;9.93;;;5.80;99.90;;;;;;5094273;28;20105;-74
2022/04/12 02:17:09;;;;;;;14.57;9.90;;;5.70;99.90;;;;;;5094075;28;20035;-73
2022/04/12 02:19:35;;;;;;;13.60;10.27;;;5.70;99.90;;;;;;5077332;28;20044;-73
2022/04/12 02:22:01;;;;;;;15.18;10.27;;;5.70;99.90;;;;;;5094497;28;20066;-74
2022/04/12 02:24:27;;;;;;;14.95;10.00;;;5.70;99.90;;;;;;5094115;28;20086;-74
2022/04/12 02:26:52;;;;;;;15.45;10.38;;;5.70;99.90;;;;;;5060482;28;20089;-73
2022/04/12 02:29:18;;;;;;;14.25;10.07;;;5.60;99.90;;;;;;5093999;28;20380;-73
2022/04/12 02:31:44;;;;;;;13.73;10.07;;;5.60;99.90;;;;;;5094022;28;20468;-74
2022/04/12 02:34:10;;;;;;;17.45;11.05;;;5.60;99.90;;;;;;5093885;28;20036;-74
2022/04/12 02:36:36;;;;;;;16.15;10.02;;;5.60;99.90;;;;;;5076956;28;20044;-74
2022/04/12 02:39:03;;;;;;;15.93;10.68;;;6.00;99.90;;;;;;5076882;28;20044;-74
2022/04/12 02:41:29;;;;;;;12.07;9.45;;;5.60;99.90;;;;;;5094069;28;20040;-74
2022/04/12 02:43:54;;;;;;;13.27;9.27;;;5.40;99.90;;;;;;5076892;28;20046;-74
2022/04/12 02:46:20;;;;;;;15.52;9.38;;;5.80;99.90;;;;;;5059998;28;20499;-74
2022/04/12 02:48:45;;;;;;;16.00;10.18;;;5.60;99.90;;;;;;5077054;28;20044;-74
2022/04/12 02:51:11;;;;;;;11.70;9.38;;;5.60;99.90;;;;;;5076988;28;20055;-74
2022/04/12 02:53:37;;;;;;;14.18;10.35;;;5.50;99.90;;;;;;5060160;28;20051;-73
2022/04/12 02:56:03;;;;;;;12.07;10.25;;;6.30;99.90;;;;;;5093619;28;20040;-73
2022/04/12 02:58:29;;;;;;;17.20;11.20;;;5.50;99.90;;;;;;5076502;28;20043;-73
2022/04/12 03:00:54;;;;;;;15.32;9.77;;;5.50;99.90;;;;;;5075616;28;20101;-74
2022/04/12 03:03:20;;;;;;;16.50;9.82;;;5.50;99.90;;;;;;5076817;28;20082;-73
2022/04/12 03:05:46;;;;;;;13.27;10.38;;;5.50;99.90;;;;;;5093653;28;20036;-73
2022/04/12 03:08:11;;;;;;;16.63;10.30;;;5.50;99.90;;;;;;5093223;28;20043;-73
2022/04/12 03:10:37;;;;;;;15.93;10.73;;;5.60;99.90;;;;;;5076376;28;20040;-73
2022/04/12 03:13:03;;;;;;;16.13;10.63;;;5.50;99.90;;;;;;5093327;28;20464;-73
2022/04/12 03:15:29;;;;;;;13.75;10.05;;;5.50;99.90;;;;;;5093289;28;20126;-74
2022/04/12 03:17:55;;;;;;;15.57;11.07;;;5.50;99.90;;;;;;5092890;28;20134;-73
2022/04/12 03:20:20;;;;;;;15.40;10.45;;;5.40;99.90;;;;;;5059497;28;20050;-74
2022/04/12 03:22:46;;;;;;;14.52;10.18;;;5.50;99.90;;;;;;5076496;28;20079;-74
2022/04/12 03:25:12;;;;;;;13.82;10.80;;;5.60;99.90;;;;;;5092924;28;20036;-74
2022/04/12 03:27:37;;;;;;;12.02;9.63;;;5.40;99.90;;;;;;5076096;28;20047;-73
2022/04/12 03:30:05;;;;;;;13.77;10.60;;;5.40;99.90;;;;;;5092825;28;20506;-74
2022/04/12 03:32:30;;;;;;;12.85;9.90;;;5.40;99.90;;;;;;5076040;28;20093;-73
2022/04/12 03:34:56;;;;;;;15.70;11.23;;;5.40;99.90;;;;;;5075845;28;20044;-74
2022/04/12 03:37:22;;;;;;;18.75;11.07;;;5.40;99.90;;;;;;5092604;28;20054;-73
2022/04/12 03:39:50;;;;;;;12.27;10.23;;;5.40;99.90;;;;;;5076098;28;20552;-74
2022/04/12 03:42:18;;;;;;;17.67;10.85;;;5.40;99.90;;;;;;5075956;28;20406;-74
2022/04/12 03:44:45;;;;;;;14.20;9.68;;;5.50;99.90;;;;;;5092942;28;20085;-74
2022/04/12 03:47:11;;;;;;;13.77;10.45;;;5.30;99.90;;;;;;5092782;28;20044;-74
2022/04/12 03:49:37;;;;;;;16.13;11.02;;;5.40;99.90;;;;;;5092760;28;20501;-74
2022/04/12 03:52:03;;;;;;;14.23;11.10;;;5.40;99.90;;;;;;5075878;28;20142;-74
2022/04/12 03:54:29;;;;;;;17.08;11.48;;;5.40;99.90;;;;;;5092273;28;20131;-74
2022/04/12 03:56:55;;;;;;;14.35;10.48;;;5.40;99.90;;;;;;5092378;28;20075;-74
2022/04/12 03:59:21;;;;;;;17.35;11.43;;;6.00;99.90;;;;;;5075496;28;20044;-73
2022/04/12 04:01:47;;;;;;;13.73;10.90;;;5.30;99.90;;;;;;5075713;28;20036;-73
2022/04/12 04:04:13;;;;;;;13.65;11.32;;;5.40;99.90;;;;;;5075350;28;20036;-74
2022/04/12 04:06:38;;;;;;;21.38;12.20;;;5.80;99.90;;;;;;5092478;28;20445;-73
2022/04/12 04:09:04;;;;;;;18.23;12.10;;;5.30;99.90;;;;;;5092371;28;20125;-74
2022/04/12 04:11:30;;;;;;;18.95;11.50;;;5.30;99.90;;;;;;5092019;28;20101;-73
2022/04/12 04:13:56;;;;;;;14.45;11.13;;;5.30;99.90;;;;;;5075271;28;20047;-74
2022/04/12 04:16:22;;;;;;;15.15;11.40;;;5.70;99.90;;;;;;5075381;28;20450;-74
2022/04/12 04:18:47;;;;;;;14.57;11.05;;;5.30;99.90;;;;;;5058300;28;20078;-74
2022/04/12 04:21:13;;;;;;;18.58;11.10;;;5.30;99.90;;;;;;5091757;28;20040;-73
2022/04/12 04:23:39;;;;;;;16.20;11.25;;;5.30;99.90;;;;;;5075040;28;20038;-74
2022/04/12 04:26:04;;;;;;;16.45;11.50;;;5.30;99.90;;;;;;5091762;28;20126;-74
2022/04/12 04:28:33;;;;;;;16.92;10.48;;;5.20;99.90;;;;;;5091940;28;20497;-74
2022/04/12 04:30:59;;;;;;;16.23;11.55;;;5.20;99.90;;;;;;5091650;28;20051;-74
2022/04/12 04:33:25;;;;;;;17.15;11.98;;;5.20;99.90;;;;;;5091614;28;20403;-73
2022/04/12 04:35:51;;;;;;;15.35;11.07;;;5.00;99.90;;;;;;5074907;28;20032;-74
2022/04/12 04:38:17;;;;;;;15.25;11.57;;;5.20;99.90;;;;;;5091575;28;20043;-73
2022/04/12 04:40:44;;;;;;;18.10;11.18;;;5.20;99.90;;;;;;5074879;28;20391;-74
2022/04/12 04:43:09;;;;;;;16.90;11.50;;;5.20;99.90;;;;;;5074811;28;20494;-74
2022/04/12 04:45:35;;;;;;;15.13;12.00;;;5.20;99.90;;;;;;5074393;28;20036;-73
2022/04/12 04:48:03;;;;;;;15.43;11.38;;;5.20;99.90;;;;;;5091285;28;20083;-74
2022/04/12 04:50:33;;;;;;;19.05;12.02;;;5.20;99.90;;;;;;5074367;28;20039;-73
2022/04/12 04:53:02;;;;;;;16.42;11.45;;;5.10;99.90;;;;;;5074413;28;20052;-73
2022/04/12 04:55:28;;;;;;;13.60;10.70;;;5.10;99.90;;;;;;5058363;28;20471;-74
2022/04/12 04:57:56;;;;;;;16.27;10.98;;;5.10;99.90;;;;;;5091456;28;20143;-73
2022/04/12 05:00:25;;;;;;;16.95;11.32;;;5.00;99.90;;;;;;5091204;28;20403;-73
2022/04/12 05:02:54;;;;;;;15.73;11.23;;;5.00;99.90;;;;;;5074674;28;20043;-74
2022/04/12 05:05:20;;;;;;;18.95;12.27;;;5.00;99.90;;;;;;5091136;28;20044;-74
2022/04/12 05:07:48;;;;;;;14.55;11.32;;;5.00;99.90;;;;;;5074305;28;20044;-74
2022/04/12 05:10:16;;;;;;;16.17;11.13;;;5.00;99.90;;;;;;5090988;28;20337;-73
2022/04/12 05:12:42;;;;;;;14.85;11.00;;;5.00;99.90;;;;;;5074206;28;20471;-73
2022/04/12 05:15:08;;;;;;;14.85;10.93;;;5.00;99.90;;;;;;5074130;28;20075;-73
2022/04/12 05:17:34;;;;;;;15.48;12.98;;;5.00;99.90;;;;;;5090814;28;20091;-73
2022/04/12 05:20:00;;;;;;;16.25;11.90;;;5.00;99.90;;;;;;5074131;28;20075;-73
2022/04/12 05:22:26;;;;;;;15.15;10.93;;;5.00;99.90;;;;;;5090975;28;20044;-73
2022/04/12 05:24:53;;;;;;;14.90;11.27;;;5.10;99.90;;;;;;5090561;28;20032;-76
2022/04/12 05:27:19;;;;;;;18.67;12.32;;;5.00;99.90;;;;;;5090943;28;20066;-74
2022/04/12 05:29:45;;;;;;;15.30;11.30;;;5.10;99.90;;;;;;5090767;28;20181;-73
2022/04/12 05:32:13;;;;;;;15.57;11.40;;;5.10;99.90;;;;;;5091097;28;20126;-73
2022/04/12 05:34:43;;;;;;;14.98;11.45;;;5.20;99.90;;;;;;5074161;28;20411;-73
2022/04/12 05:37:09;;;;;;;15.40;11.63;;;5.30;99.90;;;;;;5090702;28;20459;-73
2022/04/12 05:39:35;;;;;;;16.25;12.05;;;5.40;99.90;;;;;;5074284;28;20043;-74
2022/04/12 05:42:01;;;;;;;15.40;10.82;;;5.40;99.90;;;;;;5074298;28;20039;-73
2022/04/12 05:44:28;;;;;;;17.00;12.38;;;5.50;99.90;;;;;;5074005;28;20040;-75
2022/04/12 05:46:54;;;;;;;16.60;11.20;;;6.20;99.90;;;;;;5073876;28;20044;-73
2022/04/12 05:49:20;;;;;;;16.67;11.00;;;5.80;99.90;;;;;;5057100;28;20044;-72
2022/04/12 05:51:46;;;;;;;15.15;11.38;;;6.00;99.90;;;;;;5073852;28;20079;-72
2022/04/12 05:54:12;;;;;;;13.10;10.23;;;6.20;99.90;;;;;;5090816;28;20083;-75
2022/04/12 05:56:38;;;;;;;17.40;10.98;;;6.40;99.90;;;;;;5057057;28;20048;-77
2022/04/12 05:59:06;;;;;;;14.63;10.35;;;6.70;99.90;;;;;;5091181;28;20058;-73
2022/04/12 06:01:31;;;;;;;16.33;11.02;;;6.60;99.90;;;;;;5091044;28;20052;-76
2022/04/12 06:03:57;;;;;;;16.95;10.90;;;6.80;99.90;;;;;;5090545;28;20066;-74
2022/04/12 06:06:23;;;;;;;14.32;10.05;;;6.70;99.90;;;;;;5091242;28;20123;-74
2022/04/12 06:08:49;;;;;;;17.08;11.07;;;6.80;99.90;;;;;;5073967;28;20127;-73
2022/04/12 06:11:14;;;;;;;15.40;11.45;;;6.80;99.90;;;;;;5090691;28;20051;-73
2022/04/12 06:13:40;;;;;;;17.77;11.30;;;6.90;99.90;;;;;;5090440;28;20129;-74
2022/04/12 06:16:06;;;;;;;15.00;11.27;;;6.90;99.90;;;;;;5090560;28;20059;-74
2022/04/12 06:18:32;;;;;;;13.90;11.00;;;6.90;99.90;;;;;;5073169;28;20059;-74
2022/04/12 06:20:57;;;;;;;15.23;10.52;;;7.00;99.90;;;;;;5073264;28;20036;-75
2022/04/12 06:23:23;;;;;;;15.75;11.20;;;7.10;99.90;;;;;;5090164;28;20043;-74
2022/04/12 06:25:49;;;;;;;15.32;10.73;;;7.10;99.90;;;;;;5090047;28;20032;-74
2022/04/12 06:28:14;;;;;;;16.10;10.85;;;7.20;99.90;;;;;;5056527;28;20043;-74
2022/04/12 06:30:40;;;;;;;17.40;10.93;;;7.30;99.90;;;;;;5073533;28;20060;-75
2022/04/12 06:33:06;;;;;;;16.63;10.63;;;7.40;99.90;;;;;;5090318;28;20040;-74
2022/04/12 06:35:32;;;;;;;15.00;10.70;;;7.50;99.90;;;;;;5073781;28;20088;-74
2022/04/12 06:37:57;;;;;;;17.63;10.98;;;7.60;99.90;;;;;;5076683;28;20048;-74
2022/04/12 06:40:24;;;;;;;17.27;10.77;;;7.70;99.90;;;;;;5077034;28;20491;-74
2022/04/12 06:42:51;;;;;;;14.45;10.18;;;7.80;99.90;;;;;;5093940;28;20455;-76
2022/04/12 06:45:17;;;;;;;14.13;10.57;;;7.80;99.90;;;;;;5076682;28;20036;-74
2022/04/12 06:47:44;;;;;;;16.85;10.30;;;7.90;99.90;;;;;;5093791;28;20048;-74
2022/04/12 06:50:11;;;;;;;16.00;10.75;;;8.00;99.90;;;;;;5093560;28;20044;-74
2022/04/12 06:52:37;;;;;;;18.52;11.23;;;8.10;99.90;;;;;;5093596;28;20043;-74
2022/04/12 06:55:04;;;;;;;15.45;10.65;;;8.80;99.90;;;;;;5093548;28;20097;-75
2022/04/12 06:57:32;;;;;;;14.13;10.55;;;8.20;99.90;;;;;;5076586;28;20407;-74
2022/04/12 06:59:57;;;;;;;13.13;9.75;;;8.20;99.90;;;;;;5076467;28;20040;-74
2022/04/12 07:02:23;;;;;;;13.50;10.20;;;8.20;99.90;;;;;;5076512;28;20046;-73
2022/04/12 07:04:49;;;;;;;13.18;9.98;;;8.20;99.90;;;;;;5093578;28;20369;-74
2022/04/12 07:07:14;;;;;;;15.48;10.32;;;8.20;99.90;;;;;;5093372;28;20044;-74
2022/04/12 07:09:40;;;;;;;16.25;10.57;;;8.20;99.90;;;;;;5059807;28;20527;-74
2022/04/12 07:12:07;;;;;;;14.20;9.70;;;8.20;99.90;;;;;;5093224;28;20047;-74
2022/04/12 07:14:33;;;;;;;14.35;9.80;;;8.20;99.90;;;;;;5059701;28;20093;-74
2022/04/12 07:16:59;;;;;;;14.43;10.57;;;8.20;99.90;;;;;;5093036;28;20808;-74
2022/04/12 07:19:26;;;;;;;15.30;10.45;;;8.20;99.90;;;;;;5093356;28;20063;-74
2022/04/12 07:21:53;;;;;;;15.35;10.50;;;8.30;99.90;;;;;;5076205;28;20044;-74
2022/04/12 07:24:18;;;;;;;13.80;10.55;;;8.30;99.90;;;;;;5093243;28;20035;-74
2022/04/12 07:26:45;;;;;;;14.82;10.32;;;8.30;99.90;;;;;;5092888;28;20047;-74
2022/04/12 07:29:11;;;;;;;16.20;10.88;;;8.40;99.90;;;;;;5092836;28;20044;-74
2022/04/12 07:31:37;;;;;;;14.80;10.55;;;8.60;99.90;;;;;;5059569;28;20422;-73
2022/04/12 07:34:03;;;;;;;15.95;9.77;;;8.80;99.90;;;;;;5093045;28;20036;-73
2022/04/12 07:36:28;;;;;;;15.75;11.18;;;8.90;99.90;;;;;;5075824;28;20076;-74
2022/04/12 07:38:54;;;;;;;13.57;10.30;;;9.10;99.90;;;;;;5075832;28;20052;-75
2022/04/12 07:41:20;;;;;;;13.77;10.48;;;9.30;99.90;;;;;;5092805;28;20036;-75
2022/04/12 07:43:46;;;;;;;14.88;10.57;;;9.60;99.90;;;;;;5093032;28;20428;-75
2022/04/12 07:46:16;;;;;;;13.95;10.23;;;9.80;99.90;;;;;;5075516;28;20069;-74
2022/04/12 07:48:42;;;;;;;12.95;9.30;;;10.00;99.90;;;;;;5075755;28;20078;-75
2022/04/12 07:51:09;;;;;;;17.73;10.48;;;10.30;99.90;;;;;;5075682;28;20048;-75
2022/04/12 07:53:35;;;;;;;13.88;9.35;;;10.50;99.90;;;;;;5075650;28;20130;-76
2022/04/12 07:56:04;;;;;;;15.70;9.82;;;10.70;99.90;;;;;;5075495;28;20040;-75
2022/04/12 07:58:30;;;;;;;16.73;10.15;;;10.80;99.90;;;;;;5075581;28;20403;-75
2022/04/12 08:00:56;;;;;;;14.48;9.48;;;10.90;99.90;;;;;;5075574;28;20044;-75
2022/04/12 08:03:22;;;;;;;11.50;8.73;;;11.10;99.90;;;;;;5092477;28;20043;-76
2022/04/12 08:05:51;;;;;;;14.35;9.93;;;11.20;99.90;;;;;;5058662;28;20169;-75
2022/04/12 08:08:17;;;;;;;13.38;9.23;;;11.30;99.90;;;;;;5075340;28;20078;-75
2022/04/12 08:10:43;;;;;;;13.40;9.75;;;11.50;99.90;;;;;;5092554;28;20051;-75
2022/04/12 08:13:09;;;;;;;13.07;9.38;;;11.60;99.90;;;;;;5058447;28;20044;-75
2022/04/12 08:15:36;;;;;;;11.73;8.80;;;11.60;99.90;;;;;;5092168;28;20040;-75
2022/04/12 08:18:06;;;;;;;12.13;9.23;;;11.90;99.90;;;;;;5075043;28;20063;-74
2022/04/12 08:20:32;;;;;;;14.00;9.50;;;12.00;99.90;;;;;;5092009;28;20169;-75
2022/04/12 08:22:58;;;;;;;15.23;10.77;;;12.00;99.90;;;;;;5091769;28;20142;-76
2022/04/12 08:25:25;;;;;;;13.38;9.05;;;12.20;99.90;;;;;;5074814;28;20043;-77
2022/04/12 08:27:50;;;;;;;12.45;8.57;;;12.40;99.90;;;;;;5058376;28;20044;-74
2022/04/12 08:30:17;;;;;;;13.07;8.25;;;12.40;99.90;;;;;;5058419;28;20491;-74
2022/04/12 08:32:43;;;;;;;15.93;9.15;;;12.50;99.90;;;;;;5091572;28;20128;-76
2022/04/12 08:35:09;;;;;;;14.35;9.27;;;12.50;99.90;;;;;;5074875;28;20141;-74
2022/04/12 08:37:36;;;;;;;15.27;9.45;;;12.50;99.90;;;;;;5091274;28;20118;-74
2022/04/12 08:40:02;;;;;;;12.02;8.30;;;12.60;99.90;;;;;;5091469;28;20036;-74
2022/04/12 08:42:28;;;;;;;13.45;9.05;;;12.50;99.90;;;;;;5074584;28;20048;-74
2022/04/12 08:44:57;;;;;;;13.57;9.07;;;12.70;99.90;;;;;;5091368;28;20113;-75
2022/04/12 08:47:24;;;;;;;14.43;8.70;;;12.80;99.90;;;;;;5091027;28;20040;-74
2022/04/12 08:49:50;;;;;;;12.35;8.40;;;12.90;99.90;;;;;;5091604;28;20506;-74
2022/04/12 08:52:15;;;;;;;13.32;8.90;;;13.00;99.90;;;;;;5074430;28;20050;-74
2022/04/12 08:54:43;;;;;;;14.30;8.80;;;13.20;99.90;;;;;;5074659;28;20043;-74
2022/04/12 08:57:10;;;;;;;11.90;8.68;;;13.30;99.90;;;;;;5074435;28;20510;-75
2022/04/12 08:59:37;;;;;;;13.55;9.70;;;13.10;99.90;;;;;;5090738;28;20376;-74
2022/04/12 09:02:06;;;;;;;11.38;8.25;;;13.20;99.90;;;;;;5090948;28;20044;-76
2022/04/12 09:04:33;;;;;;;13.20;7.95;;;13.60;99.90;;;;;;5091296;28;20051;-75
2022/04/12 09:07:00;;;;;;;12.00;8.88;;;13.60;99.90;;;;;;5091174;28;20047;-74
2022/04/12 09:09:28;;;;;;;10.32;8.30;;;13.70;99.90;;;;;;5074370;28;20150;-74
2022/04/12 09:12:06;;;;;;;11.32;8.88;;;13.90;99.90;;;;;;5091196;28;20376;-74
2022/04/12 09:14:46;;;;;;;11.60;8.65;;;13.90;99.90;;;;;;5074089;28;20040;-76
2022/04/12 09:17:29;;;;;;;12.65;8.85;;;13.70;99.90;;;;;;5090459;28;20438;-74
2022/04/12 09:19:56;;;;;;;10.20;8.30;;;13.90;99.90;;;;;;5074373;28;20056;-74
2022/04/12 09:22:23;;;;;;;12.88;8.73;;;14.10;99.90;;;;;;5090695;28;20483;-74
2022/04/12 09:24:51;;;;;;;11.43;8.52;;;14.20;99.90;;;;;;5073967;28;20115;-74
2022/04/12 09:27:22;;;;;;;12.63;9.50;;;14.20;99.90;;;;;;5073977;28;20048;-74
2022/04/12 09:29:51;;;;;;;11.18;8.25;;;14.30;99.90;;;;;;5073822;28;20101;-74
2022/04/12 09:32:24;;;;;;;10.93;8.45;;;14.40;99.90;;;;;;5090588;28;20048;-74
2022/04/12 09:34:53;;;;;;;10.57;8.27;;;14.60;99.90;;;;;;5090747;28;20126;-74
2022/04/12 09:37:27;;;;;;;12.80;8.40;;;14.50;99.90;;;;;;5090425;28;20063;-75
2022/04/12 09:39:58;;;;;;;14.43;9.05;;;14.70;99.90;;;;;;5090866;28;20035;-74
2022/04/12 09:42:55;;;;;;;11.45;8.95;;;14.80;99.90;;;;;;5073632;28;20040;-74
2022/04/12 09:45:24;;;;;;;10.75;8.65;;;14.70;99.90;;;;;;5073626;28;20036;-74
2022/04/12 09:47:51;;;;;;;14.05;8.88;;;14.80;99.90;;;;;;5090447;28;20465;-74
2022/04/12 09:50:22;;;;;;;13.35;8.38;;;14.60;99.90;;;;;;5073776;28;20070;-73
2022/04/12 09:52:53;;;;;;;14.15;8.77;;;14.80;99.90;;;;;;5091006;28;20574;-73
2022/04/12 09:55:37;;;;;;;;;;;14.80;99.90;;;;;;5074357;28;20052;-73
2022/04/12 09:58:05;;;;;;;12.68;7.50;;;14.90;99.90;;;;;;5090422;28;19923;-73
2022/04/12 10:00:33;;;;;;;12.65;7.85;;;15.00;99.90;;;;;;5073628;28;20042;-75
2022/04/12 10:03:05;;;;;;;12.45;8.75;;;15.20;99.90;;;;;;5090391;28;20032;-75
2022/04/12 10:05:31;;;;;;;13.27;8.38;;;;;;;;;;5073922;28;20046;-73
2022/04/12 10:07:58;;;;;;;12.02;9.05;;;;;;;;;;5090503;28;20040;-73
2022/04/12 10:10:27;;;;;;;12.63;8.73;;;;;;;;;;5075637;28;20048;-73
2022/04/12 10:12:54;;;;;;;12.52;9.02;;;15.70;99.90;;;;;;5094588;28;20483;-73
2022/04/12 10:15:21;;;;;;;12.77;8.77;;;;;;;;;;5094271;28;20040;-73
2022/04/12 10:17:47;;;;;;;10.68;7.82;;;;;;;;;;5094003;28;20090;-74
2022/04/12 10:20:14;;;;;;;10.75;8.35;;;;;;;;;;5094215;28;20040;-74
2022/04/12 10:22:41;;;;;;;10.45;8.32;;;;;;;;;;5077389;28;20483;-74
2022/04/12 10:25:08;;;;;;;10.07;8.38;;;;;;;;;;5094013;28;20094;-73
2022/04/12 10:27:34;;;;;;;10.90;8.38;;;;;;;;;;5077169;28;20044;-73
2022/04/12 10:30:25;;;;;;;10.30;7.93;;;;;;;;;;5077299;28;20043;-75
2022/04/12 10:33:04;;;;;;;11.82;8.35;;;;;;;;;;5094115;28;20047;-73
2022/04/12 10:35:31;;;;;;;12.95;8.82;;;;;;;;;;5093984;28;20073;-74
2022/04/12 10:37:57;;;;;;;11.60;8.52;;;;;;;;;;5060403;28;20075;-73
2022/04/12 10:40:27;;;;;;;10.02;8.43;;;;;;;;;;5094048;28;20391;-73
2022/04/12 10:42:55;;;;;;;11.30;8.75;;;;;;;;;;5093641;28;20040;-72
2022/04/12 10:45:33;;;;;;;9.23;7.47;;;;;;;;;;5076772;28;20353;-73
2022/04/12 10:48:00;;;;;;;11.38;8.88;;;;;;;;;;5076813;28;20044;-74
2022/04/12 10:50:26;;;;;;;10.32;7.85;;;16.80;99.90;;;;;;5076585;28;20044;-74
2022/04/12 10:52:53;;;;;;;13.35;8.75;;;16.70;99.90;;;;;;5093788;28;20487;-73
2022/04/12 10:55:27;;;;;;;9.05;7.88;;;16.70;99.90;;;;;;5076585;28;20126;-74
2022/04/12 10:57:53;;;;;;;9.65;8.65;;;16.80;99.90;;;;;;5076714;28;20070;-74
2022/04/12 11:00:23;;;;;;;11.02;8.18;;;16.90;99.90;;;;;;5093729;28;20093;-74
2022/04/12 11:02:59;;;;;;;11.48;8.77;;;16.90;99.90;;;;;;5076620;28;20047;-74
2022/04/12 11:05:39;;;;;;;12.27;8.25;;;16.90;99.90;;;;;;5093709;28;20511;-74
2022/04/12 11:08:14;;;;;;;9.95;8.30;;;16.80;99.90;;;;;;5093707;28;20132;-74
2022/04/12 11:10:52;;;;;;;10.95;8.27;;;16.90;99.90;;;;;;5093364;28;20044;-74
2022/04/12 11:13:22;;;;;;;10.07;7.53;;;16.90;99.90;;;;;;5093055;28;20169;-74
2022/04/12 11:15:56;;;;;;;10.75;7.97;;;17.00;99.90;;;;;;5093210;28;20112;-74
2022/04/12 11:18:22;;;;;;;11.75;7.88;;;17.20;99.90;;;;;;5092504;28;20056;-73
2022/04/12 11:21:02;;;;;;;9.43;7.72;;;17.20;99.90;;;;;;5076252;28;20484;-73
2022/04/12 11:23:48;;;;;;;10.30;7.82;;;17.10;99.90;;;;;;5075982;28;20044;-74
2022/04/12 11:26:28;;;;;;;11.02;8.32;;;17.20;99.90;;;;;;5076406;28;20507;-73
2022/04/12 11:28:57;;;;;;;12.13;8.73;;;17.40;99.90;;;;;;5076396;28;20407;-73
2022/04/12 11:31:23;;;;;;;11.98;8.10;;;17.50;99.90;;;;;;5076086;28;20044;-73
2022/04/12 11:33:49;;;;;;;13.00;9.00;;;17.40;99.90;;;;;;5075826;28;20043;-74
2022/04/12 11:36:19;;;;;;;10.48;8.77;;;17.50;99.90;;;;;;5075569;28;20036;-73
2022/04/12 11:38:46;;;;;;;11.00;8.98;;;17.70;99.90;;;;;;5076073;28;20399;-73
2022/04/12 11:41:12;;;;;;;11.45;7.97;;;17.70;99.90;;;;;;5092524;28;20047;-75
2022/04/12 11:43:38;;;;;;;12.13;8.50;;;17.80;99.90;;;;;;5092473;28;20036;-73
2022/04/12 11:46:04;;;;;;;13.65;8.20;;;17.80;99.90;;;;;;5092409;28;20513;-73
2022/04/12 11:48:32;;;;;;;11.68;8.55;;;17.90;99.90;;;;;;5092454;28;20036;-75
2022/04/12 11:51:03;;;;;;;12.13;8.80;;;18.00;99.90;;;;;;5075891;28;20120;-74
2022/04/12 11:53:29;;;;;;;10.95;9.23;;;17.90;99.90;;;;;;5092358;28;20388;-74
2022/04/12 11:56:00;;;;;;;13.18;8.85;;;18.00;99.90;;;;;;5092397;28;20514;-74
2022/04/12 11:58:28;;;;;;;12.88;9.95;;;18.20;99.90;;;;;;5075311;28;20043;-74
2022/04/12 12:00:54;;;;;;;11.40;9.18;;;18.20;99.90;;;;;;5092266;28;20221;-74
2022/04/12 12:03:19;;;;;;;10.13;8.18;;;18.20;99.90;;;;;;5092077;28;20123;-74
2022/04/12 12:05:45;;;;;;;11.57;9.32;;;18.20;99.90;;;;;;5092103;28;20427;-74
2022/04/12 12:08:12;;;;;;;12.10;8.85;;;18.30;99.90;;;;;;5092167;28;20089;-74
2022/04/12 12:10:38;;;;;;;12.40;8.60;;;18.50;99.90;;;;;;5092016;28;20047;-74
2022/04/12 12:13:08;;;;;;;14.55;9.30;;;18.50;99.90;;;;;;5075154;28;20122;-73
2022/04/12 12:15:35;;;;;;;13.32;9.50;;;18.50;99.90;;;;;;5092159;28;20040;-77
2022/04/12 12:18:06;;;;;;;11.02;8.13;;;18.50;99.90;;;;;;5091765;28;20043;-74
2022/04/12 12:20:34;;;;;;;12.80;8.80;;;18.40;99.90;;;;;;5091619;28;20083;-74
2022/04/12 12:23:04;;;;;;;14.45;8.48;;;18.40;99.90;;;;;;5074933;28;20040;-73
2022/04/12 12:25:41;;;;;;;11.95;8.90;;;18.60;99.90;;;;;;5091709;28;20244;-75
2022/04/12 12:28:24;;;;;;;14.80;9.07;;;18.70;99.90;;;;;;5091541;28;20040;-75
2022/04/12 12:31:02;;;;;;;12.02;8.43;;;18.70;99.90;;;;;;5091586;28;20040;-74
2022/04/12 12:33:43;;;;;;;13.65;9.15;;;18.80;99.90;;;;;;5090499;28;20132;-75
2022/04/12 12:36:24;;;;;;;12.30;8.52;;;18.90;99.90;;;;;;5074990;28;20058;-74
2022/04/12 12:38:52;;;;;;;12.77;8.77;;;19.20;99.90;;;;;;5091468;28;20047;-75
2022/04/12 12:41:32;;;;;;;11.70;8.65;;;19.20;99.90;;;;;;5058067;28;20032;-74
2022/04/12 12:44:03;;;;;;;15.82;10.23;;;19.20;99.80;;;;;;5074461;28;20120;-76
2022/04/12 12:46:34;;;;;;;13.27;9.68;;;19.20;99.70;;;;;;5091554;28;20169;-73
2022/04/12 12:49:05;;;;;;;;;;;19.20;99.90;;;;;;5091748;28;20032;-75
2022/04/12 12:51:31;;;;;;;14.35;8.60;;;19.30;99.90;;;;;;5091643;28;20326;-75